Time;durP1;ratioP1;P1;durP2;ratioP2;P2;SDS_P1;SDS_P2;PMS_P1;PMS_P2;Temp;Humidity;BMP_temperature;BMP_pressure;BME280_temperature;BME280_humidity;BME280_pressure;Samples;Min_cycle;Max_cycle;Signal;HPM_P1;HPM_P2
2021/12/15 00:00:59;;;;;;;15.98;9.63;;;1.10;99.90;;;;;;1917720;75;21192;-91
2021/12/15 00:06:38;;;;;;;15.35;8.90;;;1.20;99.90;;;;;;1943500;72;22137;-91
2021/12/15 00:09:29;;;;;;;13.38;8.83;;;1.20;99.90;;;;;;1917669;75;21056;-91
2021/12/15 00:12:21;;;;;;;13.78;8.30;;;1.20;99.90;;;;;;1917643;75;21436;-91
2021/12/15 00:15:12;;;;;;;13.30;8.48;;;1.20;99.90;;;;;;1923310;73;21149;-91
2021/12/15 00:18:22;;;;;;;13.28;7.90;;;1.20;99.90;;;;;;1917497;75;21039;-90
2021/12/15 00:21:16;;;;;;;17.85;9.80;;;1.20;99.90;;;;;;1926416;73;21047;-90
2021/12/15 00:24:09;;;;;;;14.50;8.93;;;1.20;99.90;;;;;;1924404;73;21127;-90
2021/12/15 00:27:00;;;;;;;16.60;9.13;;;1.10;99.90;;;;;;1928923;73;21539;-90
2021/12/15 00:29:52;;;;;;;14.07;9.03;;;1.00;99.90;;;;;;1935738;73;21146;-91
2021/12/15 00:32:44;;;;;;;12.50;8.00;;;1.10;99.90;;;;;;1917940;75;21055;-91
2021/12/15 00:35:36;;;;;;;12.58;7.90;;;1.10;99.90;;;;;;1923467;73;21055;-91
2021/12/15 00:38:28;;;;;;;10.30;6.83;;;1.20;99.90;;;;;;1928393;73;21108;-90
2021/12/15 00:41:19;;;;;;;10.75;7.00;;;1.10;99.90;;;;;;1917755;75;21062;-91
2021/12/15 00:44:11;;;;;;;10.82;6.58;;;1.10;99.90;;;;;;1917475;75;21081;-91
2021/12/15 00:47:03;;;;;;;9.85;6.67;;;1.00;99.90;;;;;;1915809;75;21059;-92
2021/12/15 00:49:56;;;;;;;12.45;7.35;;;1.00;99.90;;;;;;1923817;73;21094;-90
2021/12/15 00:56:00;;;;;;;11.78;7.60;;;1.00;99.90;;;;;;1994985;71;22242;-91
2021/12/15 00:58:52;;;;;;;11.95;7.37;;;1.00;99.90;;;;;;1953480;73;21046;-90
2021/12/15 01:01:45;;;;;;;11.25;6.65;;;1.00;99.90;;;;;;2058026;69;21067;-90
2021/12/15 01:04:36;;;;;;;12.33;6.78;;;1.00;99.90;;;;;;2057157;69;21130;-91
2021/12/15 01:07:47;;;;;;;14.13;7.37;;;1.00;99.90;;;;;;2032367;69;21018;-90
2021/12/15 01:19:51;;;;;;;13.58;8.08;;;1.00;99.90;;;;;;1907105;75;21051;-90
2021/12/15 01:22:43;;;;;;;12.93;8.13;;;1.00;99.90;;;;;;1891348;75;21059;-90
2021/12/15 01:25:56;;;;;;;13.32;7.15;;;1.00;99.90;;;;;;1897209;75;21029;-91
2021/12/15 01:28:48;;;;;;;13.80;8.33;;;0.90;99.90;;;;;;1897939;75;21084;-89
2021/12/15 01:31:40;;;;;;;12.25;7.78;;;0.90;99.90;;;;;;1899108;75;21181;-90
2021/12/15 01:34:32;;;;;;;13.78;8.23;;;0.90;99.90;;;;;;1896316;75;21101;-89
2021/12/15 01:37:23;;;;;;;15.23;7.53;;;0.90;99.90;;;;;;1890608;75;21051;-90
2021/12/15 01:40:24;;;;;;;15.93;8.08;;;1.00;99.90;;;;;;1907959;75;21043;-90
2021/12/15 01:49:06;;;;;;;10.98;7.25;;;0.90;99.90;;;;;;1937558;73;21117;-90
2021/12/15 01:52:01;;;;;;;13.85;7.92;;;0.90;99.90;;;;;;1917884;75;21071;-90
2021/12/15 01:54:58;;;;;;;13.90;7.80;;;0.90;99.90;;;;;;1920141;73;21192;-91
2021/12/15 01:58:08;;;;;;;13.88;7.45;;;1.00;99.90;;;;;;1882679;76;21047;-91
2021/12/15 02:01:03;;;;;;;13.88;7.83;;;1.00;99.90;;;;;;1917963;75;21058;-91
2021/12/15 02:03:54;;;;;;;11.57;7.60;;;1.10;99.90;;;;;;1934389;73;21133;-93
2021/12/15 02:06:48;;;;;;;14.45;7.20;;;1.10;99.90;;;;;;1918008;75;21066;-91
2021/12/15 02:10:01;;;;;;;11.97;6.97;;;1.00;99.90;;;;;;1917766;75;21102;-90
2021/12/15 02:12:46;;;;;;;14.33;7.95;;;1.00;99.90;;;;;;1917518;75;21138;-91
2021/12/15 02:15:40;;;;;;;15.30;8.15;;;1.00;99.90;;;;;;1917877;75;21058;-90
2021/12/15 02:18:34;;;;;;;11.45;7.20;;;1.00;99.90;;;;;;1917478;75;21081;-91
2021/12/15 02:21:26;;;;;;;13.20;7.00;;;1.10;99.90;;;;;;1917719;75;21205;-91
2021/12/15 02:24:18;;;;;;;13.28;7.20;;;1.00;99.90;;;;;;1940340;73;21171;-90
2021/12/15 02:27:13;;;;;;;11.68;7.65;;;1.00;99.90;;;;;;1917941;73;21117;-90
2021/12/15 02:30:20;;;;;;;12.23;7.55;;;1.10;99.90;;;;;;1926181;73;21111;-89
2021/12/15 02:47:36;;;;;;;11.75;6.42;;;1.00;99.90;;;;;;1889627;75;22197;-91
2021/12/15 02:53:10;;;;;;;11.35;6.50;;;0.90;99.90;;;;;;1955979;72;22171;-91
2021/12/15 02:56:02;;;;;;;11.48;6.90;;;0.90;99.90;;;;;;1903936;75;21334;-91
2021/12/15 03:01:56;;;;;;;12.60;6.85;;;0.90;99.90;;;;;;1945028;72;22177;-92
2021/12/15 03:04:49;;;;;;;12.53;7.17;;;0.90;99.90;;;;;;1905906;75;21102;-90
2021/12/15 03:07:44;;;;;;;12.55;6.97;;;0.90;99.90;;;;;;1905591;75;21055;-91
2021/12/15 03:17:09;;;;;;;10.13;6.70;;;0.90;99.90;;;;;;1917805;75;21195;-92
2021/12/15 03:22:49;;;;;;;10.43;6.35;;;0.90;99.90;;;;;;1958572;72;22083;-91
2021/12/15 03:34:11;;;;;;;12.05;6.40;;;0.90;99.90;;;;;;1959119;72;21236;-90
2021/12/15 03:37:08;;;;;;;13.95;7.65;;;0.90;99.90;;;;;;2032610;70;21030;-90
2021/12/15 03:40:01;;;;;;;11.35;6.92;;;0.90;99.90;;;;;;2039559;69;21083;-90
2021/12/15 03:43:13;;;;;;;11.48;6.80;;;0.80;99.90;;;;;;2034631;70;21110;-90
2021/12/15 03:46:07;;;;;;;10.80;6.37;;;0.80;99.90;;;;;;2034304;70;21153;-90
2021/12/15 03:49:00;;;;;;;11.28;7.05;;;0.80;99.90;;;;;;2034112;70;21035;-91
2021/12/15 03:51:51;;;;;;;11.57;6.60;;;0.90;99.90;;;;;;2032999;70;21019;-89
2021/12/15 03:54:44;;;;;;;9.93;6.33;;;0.90;99.90;;;;;;2062046;69;21052;-90
2021/12/15 03:57:36;;;;;;;10.38;5.72;;;0.90;99.90;;;;;;2054358;69;21031;-88
2021/12/15 04:00:29;;;;;;;9.98;6.67;;;1.00;99.90;;;;;;2034070;70;21147;-90
2021/12/15 04:06:03;;;;;;;11.22;6.05;;;0.90;99.90;;;;;;1952084;72;22281;-91
2021/12/15 04:11:37;;;;;;;10.55;6.83;;;1.00;99.90;;;;;;1956161;72;22131;-90
2021/12/15 04:14:34;;;;;;;10.15;6.50;;;0.90;99.90;;;;;;1890933;74;21063;-91
2021/12/15 04:17:30;;;;;;;12.35;6.97;;;0.90;99.90;;;;;;1908062;75;21164;-91
2021/12/15 04:20:24;;;;;;;10.93;6.78;;;0.90;99.90;;;;;;1917756;75;21167;-91
2021/12/15 04:23:34;;;;;;;12.90;7.22;;;1.00;99.90;;;;;;1885064;75;21068;-91
2021/12/15 04:26:27;;;;;;;12.35;7.65;;;1.00;99.90;;;;;;1898908;75;21063;-91
2021/12/15 04:32:05;;;;;;;14.65;8.15;;;1.00;99.90;;;;;;1957889;72;22104;-91
2021/12/15 04:34:57;;;;;;;14.75;8.40;;;1.00;99.90;;;;;;1887029;75;21067;-91
2021/12/15 04:40:34;;;;;;;19.35;12.93;;;1.00;99.90;;;;;;1928994;72;28162;-91
2021/12/15 04:43:29;;;;;;;15.13;9.85;;;1.10;99.90;;;;;;1923271;73;21113;-90
2021/12/15 04:49:07;;;;;;;13.45;8.63;;;1.00;99.90;;;;;;1957169;72;22146;-91
2021/12/15 04:51:59;;;;;;;15.10;9.08;;;1.00;99.90;;;;;;1943818;73;21090;-90
2021/12/15 04:54:51;;;;;;;13.85;8.40;;;1.00;99.90;;;;;;1917808;75;21106;-91
2021/12/15 04:57:43;;;;;;;14.55;8.70;;;0.90;99.90;;;;;;1917863;75;21070;-91
2021/12/15 05:00:55;;;;;;;13.85;7.22;;;0.90;99.90;;;;;;1937387;73;21050;-89
2021/12/15 05:03:47;;;;;;;10.63;6.37;;;0.90;99.90;;;;;;1932653;73;21088;-90
2021/12/15 05:06:39;;;;;;;11.43;6.45;;;0.90;99.90;;;;;;1951663;73;21113;-90
2021/12/15 05:09:30;;;;;;;11.63;6.70;;;0.90;99.90;;;;;;1925461;73;21099;-89
2021/12/15 05:12:23;;;;;;;10.43;6.45;;;0.90;99.90;;;;;;1917822;75;21167;-91
2021/12/15 05:15:14;;;;;;;10.13;6.33;;;0.90;99.90;;;;;;1917992;75;21058;-90
2021/12/15 05:20:48;;;;;;;10.03;5.78;;;0.80;99.90;;;;;;1958450;72;22151;-91
2021/12/15 05:23:39;;;;;;;9.03;5.65;;;0.80;99.90;;;;;;1917933;75;21055;-91
2021/12/15 05:26:32;;;;;;;10.90;6.22;;;0.90;99.90;;;;;;1899684;75;21084;-90
2021/12/15 05:29:24;;;;;;;8.63;6.05;;;0.80;99.90;;;;;;1886381;75;21058;-91
2021/12/15 05:32:33;;;;;;;8.93;5.97;;;0.80;99.90;;;;;;1907156;75;21055;-91
2021/12/15 05:35:25;;;;;;;10.70;6.35;;;0.80;99.90;;;;;;1906883;75;21103;-91
2021/12/15 05:41:25;;;;;;;10.78;5.75;;;0.70;99.90;;;;;;2085242;68;22064;-91
2021/12/15 05:47:08;;;;;;;8.98;6.15;;;0.70;99.90;;;;;;1943773;72;22121;-91
2021/12/15 05:49:59;;;;;;;11.97;6.05;;;0.70;99.90;;;;;;1920562;73;21091;-91
2021/12/15 05:55:36;;;;;;;10.10;6.42;;;0.80;99.90;;;;;;1957797;72;22116;-91
2021/12/15 06:01:07;;;;;;;9.98;6.22;;;0.70;99.90;;;;;;1953245;72;22139;-91
2021/12/15 06:04:00;;;;;;;9.98;6.08;;;0.80;99.90;;;;;;1917947;75;21046;-91
2021/12/15 06:06:52;;;;;;;10.30;6.12;;;0.80;99.90;;;;;;1917745;75;21063;-91
2021/12/15 06:09:43;;;;;;;8.78;5.80;;;0.70;99.90;;;;;;1917899;73;21164;-92
2021/12/15 06:12:55;;;;;;;9.53;6.08;;;0.70;99.90;;;;;;1946706;73;21148;-92
2021/12/15 06:15:48;;;;;;;9.40;5.60;;;0.70;99.90;;;;;;1928054;73;21067;-93
2021/12/15 06:18:40;;;;;;;8.80;5.30;;;0.60;99.90;;;;;;1917730;74;21179;-93
2021/12/15 06:21:32;;;;;;;9.30;5.72;;;0.60;99.90;;;;;;1918030;75;21099;-92
2021/12/15 06:24:23;;;;;;;9.95;6.05;;;0.60;99.90;;;;;;1918295;75;21115;-92
2021/12/15 06:27:18;;;;;;;9.38;6.00;;;0.60;99.90;;;;;;1918108;75;21120;-92
2021/12/15 06:30:11;;;;;;;9.40;6.03;;;0.60;99.90;;;;;;1918170;75;21164;-93
2021/12/15 08:41:18;;;;;;;19.48;11.03;;;1.20;99.90;;;;;;1995009;71;22115;-93
2021/12/15 11:07:29;;;;;;;20.23;12.53;;;1.90;99.90;;;;;;1974178;73;22082;-93
2021/12/15 11:10:25;;;;;;;21.62;13.35;;;2.60;99.90;;;;;;1915903;75;21167;-94
2021/12/15 11:13:17;;;;;;;28.85;18.02;;;2.50;99.90;;;;;;1916425;75;21105;-95
2021/12/15 11:16:10;;;;;;;31.40;18.32;;;2.50;99.90;;;;;;1918544;75;21046;-93
2021/12/15 11:19:58;;;;;;;27.62;17.10;;;2.50;99.90;;;;;;1915226;75;21074;-92
2021/12/15 11:22:52;;;;;;;25.80;15.58;;;2.60;99.90;;;;;;1915592;75;21091;-92
2021/12/15 11:25:49;;;;;;;24.00;15.95;;;2.60;99.90;;;;;;1919775;73;21062;-92
2021/12/15 11:28:43;;;;;;;26.15;15.38;;;2.70;99.90;;;;;;1929251;73;21218;-93
2021/12/15 11:31:36;;;;;;;27.73;16.07;;;2.80;99.90;;;;;;1916772;75;21103;-93
2021/12/15 11:34:28;;;;;;;26.35;16.02;;;2.80;99.90;;;;;;1915755;75;21125;-93
2021/12/15 11:37:39;;;;;;;28.62;16.82;;;2.80;99.90;;;;;;1915847;75;21114;-93
2021/12/15 11:40:40;;;;;;;27.58;16.50;;;2.80;99.90;;;;;;1916206;75;21111;-93
2021/12/15 11:43:36;;;;;;;31.00;17.15;;;2.80;99.90;;;;;;1915852;75;21129;-93
2021/12/15 11:46:31;;;;;;;27.70;16.70;;;2.80;99.90;;;;;;1915788;75;21155;-93
2021/12/15 11:49:25;;;;;;;27.40;16.95;;;2.70;99.90;;;;;;1915671;75;21089;-93
2021/12/15 11:52:17;;;;;;;29.37;18.05;;;2.80;99.90;;;;;;1915759;75;21068;-93
2021/12/15 11:55:22;;;;;;;25.50;15.40;;;2.80;99.90;;;;;;1909385;75;21133;-93
2021/12/15 11:58:33;;;;;;;30.70;18.75;;;3.00;99.90;;;;;;1908579;75;21071;-93
2021/12/15 12:01:47;;;;;;;28.10;17.42;;;3.00;99.90;;;;;;1908791;75;21200;-93
2021/12/15 12:04:42;;;;;;;27.07;18.12;;;3.00;99.90;;;;;;1908536;75;21256;-93
2021/12/15 12:07:36;;;;;;;25.57;16.87;;;3.00;99.90;;;;;;1915772;75;21147;-93
2021/12/15 12:10:41;;;;;;;27.40;17.25;;;3.10;99.90;;;;;;1839990;78;21149;-93
2021/12/15 12:13:30;;;;;;;26.52;17.20;;;3.20;99.90;;;;;;1908944;75;21114;-93
2021/12/15 12:16:23;;;;;;;25.20;16.82;;;3.20;99.90;;;;;;1909146;75;21178;-93
2021/12/15 12:19:15;;;;;;;24.75;15.95;;;3.20;99.90;;;;;;1908404;75;21164;-93
2021/12/15 12:22:08;;;;;;;27.60;15.70;;;3.20;99.90;;;;;;1932747;74;21153;-93
2021/12/15 12:25:03;;;;;;;28.27;17.82;;;3.20;99.90;;;;;;1946799;74;21079;-93
2021/12/15 12:27:56;;;;;;;28.73;17.32;;;3.20;99.90;;;;;;1915196;75;21054;-95
2021/12/15 12:30:50;;;;;;;22.25;14.18;;;3.30;99.90;;;;;;1915192;75;21084;-93
2021/12/15 12:33:42;;;;;;;25.70;16.10;;;3.30;99.90;;;;;;1915327;75;21117;-93
2021/12/15 12:36:35;;;;;;;25.08;14.75;;;3.30;99.90;;;;;;1917463;75;21103;-92
2021/12/15 12:39:34;;;;;;;25.77;13.90;;;3.30;99.90;;;;;;1916882;75;21046;-92
2021/12/15 12:42:34;;;;;;;20.90;13.08;;;3.40;99.90;;;;;;1915417;75;21050;-92
2021/12/15 12:45:35;;;;;;;19.07;12.63;;;3.50;99.90;;;;;;1915054;75;21163;-92
2021/12/15 12:48:46;;;;;;;20.50;13.25;;;3.50;99.90;;;;;;1916254;75;21540;-92
2021/12/15 13:01:28;;;;;;;20.92;12.98;;;3.50;99.90;;;;;;1915095;75;21087;-93
2021/12/15 13:04:20;;;;;;;21.27;13.22;;;3.50;99.90;;;;;;1915136;75;21142;-93
2021/12/15 13:07:12;;;;;;;19.90;12.63;;;3.50;99.90;;;;;;1911997;75;21146;-93
2021/12/15 13:10:04;;;;;;;20.48;12.58;;;3.40;99.90;;;;;;1903395;75;21129;-93
2021/12/15 13:13:13;;;;;;;21.33;13.03;;;3.50;99.90;;;;;;1902880;75;21180;-93
2021/12/15 13:16:08;;;;;;;21.70;13.13;;;3.40;99.90;;;;;;1902729;75;21217;-92
2021/12/15 13:19:10;;;;;;;19.85;12.28;;;3.40;99.90;;;;;;1906003;75;21161;-93
2021/12/15 13:22:56;;;;;;;23.50;13.43;;;3.50;99.90;;;;;;1903320;75;21123;-92
2021/12/15 13:29:17;;;;;;;20.57;12.75;;;3.60;99.90;;;;;;1902280;75;21061;-93
2021/12/15 13:32:15;;;;;;;19.52;12.55;;;3.70;99.90;;;;;;1902443;75;21157;-93
2021/12/15 13:35:25;;;;;;;21.62;13.35;;;3.80;99.90;;;;;;1902172;75;21174;-94
2021/12/15 13:38:41;;;;;;;21.40;13.90;;;3.80;99.90;;;;;;1902596;75;21053;-93
2021/12/15 13:42:00;;;;;;;21.97;13.55;;;3.70;99.90;;;;;;1903181;75;21119;-93
2021/12/15 13:45:11;;;;;;;21.05;13.83;;;3.70;99.90;;;;;;1902203;75;21120;-93
2021/12/15 13:48:45;;;;;;;21.52;13.60;;;3.70;99.90;;;;;;1901963;75;21065;-94
2021/12/15 13:52:19;;;;;;;21.62;13.25;;;3.70;99.90;;;;;;1902502;75;21280;-93
2021/12/15 13:55:34;;;;;;;20.97;13.35;;;3.70;99.90;;;;;;1850244;76;21066;-92
2021/12/15 13:58:34;;;;;;;21.45;13.20;;;3.80;99.90;;;;;;1906788;74;21223;-93
2021/12/15 14:01:31;;;;;;;21.00;13.13;;;3.90;99.90;;;;;;1902849;75;21107;-93
2021/12/15 14:04:46;;;;;;;20.35;13.58;;;4.00;99.90;;;;;;1866034;77;21106;-92
2021/12/15 14:07:46;;;;;;;23.35;13.93;;;4.00;99.90;;;;;;1901873;75;21160;-92
2021/12/15 14:11:02;;;;;;;24.85;15.13;;;4.00;99.90;;;;;;1845557;77;21075;-92
2021/12/15 14:17:11;;;;;;;22.95;14.10;;;3.90;99.90;;;;;;1880190;75;21060;-92
2021/12/15 14:20:42;;;;;;;20.60;13.55;;;3.90;99.90;;;;;;1900723;75;21060;-94
2021/12/15 14:27:03;;;;;;;23.30;14.55;;;3.80;99.90;;;;;;1900977;75;21137;-92
2021/12/15 14:30:00;;;;;;;26.73;15.40;;;3.80;99.90;;;;;;1900571;75;21613;-93
2021/12/15 14:32:56;;;;;;;26.10;14.80;;;3.90;99.90;;;;;;1902252;75;21103;-92
2021/12/15 14:35:58;;;;;;;22.22;15.53;;;3.90;99.90;;;;;;1881280;75;21071;-92
2021/12/15 14:38:58;;;;;;;26.60;15.83;;;3.90;99.90;;;;;;1902281;75;21091;-93
2021/12/15 14:41:55;;;;;;;27.27;15.93;;;3.80;99.90;;;;;;1927890;74;21103;-93
2021/12/15 14:44:49;;;;;;;24.67;15.72;;;3.80;99.90;;;;;;1917463;74;21542;-93
2021/12/15 14:47:44;;;;;;;22.67;14.18;;;3.70;99.90;;;;;;1905523;75;21558;-94
2021/12/15 14:50:50;;;;;;;26.25;14.63;;;3.70;99.90;;;;;;1905727;75;21098;-93
2021/12/15 14:53:45;;;;;;;24.43;14.38;;;3.70;99.90;;;;;;1905588;75;21153;-93
2021/12/15 14:57:04;;;;;;;24.30;15.20;;;3.80;99.90;;;;;;1905707;75;21225;-93
2021/12/15 15:00:19;;;;;;;25.80;15.98;;;3.70;99.90;;;;;;1905358;75;21075;-93
2021/12/15 15:03:13;;;;;;;24.12;15.43;;;3.70;99.90;;;;;;1902551;75;21101;-93
2021/12/15 15:06:26;;;;;;;23.57;15.53;;;3.80;99.90;;;;;;1902482;75;21162;-93
2021/12/15 15:09:27;;;;;;;24.18;15.60;;;3.70;99.90;;;;;;1906932;74;21128;-93
2021/12/15 15:12:26;;;;;;;23.02;14.33;;;3.70;99.90;;;;;;1878495;75;21103;-92
2021/12/15 15:15:25;;;;;;;24.92;16.05;;;3.80;99.90;;;;;;1902132;75;21079;-93
2021/12/15 15:18:52;;;;;;;25.52;15.40;;;3.80;99.90;;;;;;1903742;75;21055;-93
2021/12/15 15:21:47;;;;;;;30.00;16.23;;;3.80;99.90;;;;;;1902599;75;21158;-94
2021/12/15 15:24:47;;;;;;;30.77;17.90;;;3.80;99.90;;;;;;1902365;75;21109;-95
2021/12/15 15:28:04;;;;;;;28.05;17.50;;;3.90;99.90;;;;;;1933284;74;21791;-92
2021/12/15 15:31:02;;;;;;;28.75;18.67;;;3.80;99.90;;;;;;1935829;74;21125;-94
2021/12/15 15:34:04;;;;;;;29.32;17.52;;;3.80;99.90;;;;;;1936178;74;21059;-93
2021/12/15 15:37:01;;;;;;;29.42;17.95;;;3.80;99.90;;;;;;1936189;74;21051;-92
2021/12/15 15:40:16;;;;;;;28.57;17.20;;;3.80;99.90;;;;;;1935814;74;21090;-93
2021/12/15 15:43:34;;;;;;;31.17;18.35;;;3.80;99.90;;;;;;1935680;74;21143;-93
2021/12/15 15:46:49;;;;;;;30.75;17.48;;;3.70;99.90;;;;;;1902987;75;21148;-92
2021/12/15 15:49:54;;;;;;;29.12;17.70;;;3.80;99.90;;;;;;1902310;75;21114;-93
2021/12/15 15:53:16;;;;;;;28.42;17.20;;;3.70;99.90;;;;;;1902163;75;21062;-92
2021/12/15 15:56:14;;;;;;;29.77;17.45;;;3.70;99.90;;;;;;1902700;75;21549;-93
2021/12/15 15:59:13;;;;;;;26.23;17.05;;;3.70;99.90;;;;;;1902433;75;21102;-92
2021/12/15 16:02:11;;;;;;;31.27;18.12;;;3.70;99.90;;;;;;1903523;75;21095;-93
2021/12/15 16:05:09;;;;;;;30.05;17.62;;;3.70;99.90;;;;;;1905671;75;21048;-92
2021/12/15 16:08:08;;;;;;;29.27;17.67;;;3.70;99.90;;;;;;1905366;75;21125;-92
2021/12/15 16:11:08;;;;;;;29.77;17.62;;;3.70;99.90;;;;;;1904928;75;21068;-93
2021/12/15 16:14:06;;;;;;;31.75;17.87;;;3.60;99.90;;;;;;1902338;75;21087;-93
2021/12/15 16:17:06;;;;;;;33.15;18.25;;;3.60;99.90;;;;;;1866218;77;21056;-93
2021/12/15 16:20:14;;;;;;;32.42;18.50;;;3.70;99.90;;;;;;1902254;75;21054;-93
2021/12/15 16:23:03;;;;;;;32.98;18.73;;;3.60;99.90;;;;;;1876617;75;21144;-94
2021/12/15 16:25:58;;;;;;;36.88;20.23;;;3.60;99.90;;;;;;1902242;75;21129;-94
2021/12/15 16:28:53;;;;;;;28.80;16.93;;;3.60;99.90;;;;;;1902107;75;21091;-92
2021/12/15 16:31:55;;;;;;;33.13;17.95;;;3.60;99.90;;;;;;1902640;75;21102;-93
2021/12/15 16:34:56;;;;;;;29.52;17.27;;;3.60;99.90;;;;;;1902385;75;21063;-94
2021/12/15 16:37:54;;;;;;;29.42;17.73;;;3.50;99.90;;;;;;1903068;75;21140;-91
2021/12/15 16:41:09;;;;;;;29.42;17.48;;;3.60;99.90;;;;;;1884869;75;21055;-93
2021/12/15 16:44:19;;;;;;;28.77;16.97;;;3.60;99.90;;;;;;1902894;75;21100;-93
2021/12/15 16:47:41;;;;;;;29.90;17.80;;;3.50;99.90;;;;;;1902567;75;21165;-96
2021/12/15 16:51:00;;;;;;;28.42;16.75;;;3.50;99.90;;;;;;1881207;75;21130;-95
2021/12/15 16:54:12;;;;;;;26.30;16.65;;;3.50;99.90;;;;;;1903195;75;21096;-92
2021/12/15 16:57:09;;;;;;;30.15;17.75;;;3.50;99.90;;;;;;1902212;75;21082;-93
2021/12/15 17:00:08;;;;;;;32.13;18.55;;;3.50;99.90;;;;;;1902544;75;21122;-94
2021/12/15 17:03:02;;;;;;;32.05;18.57;;;3.50;99.90;;;;;;1902362;75;21053;-92
2021/12/15 17:05:54;;;;;;;30.62;18.32;;;3.50;99.90;;;;;;1902637;75;21132;-94
2021/12/15 17:08:45;;;;;;;30.20;18.23;;;3.50;99.90;;;;;;1902608;75;21067;-94
2021/12/15 17:11:39;;;;;;;30.80;18.30;;;3.50;99.90;;;;;;1902527;75;21130;-93
2021/12/15 17:14:44;;;;;;;33.50;18.62;;;3.60;99.90;;;;;;1903189;75;21048;-92
2021/12/15 17:17:44;;;;;;;32.73;19.70;;;3.50;99.90;;;;;;1902353;75;21047;-93
2021/12/15 17:20:38;;;;;;;31.75;19.20;;;3.60;99.90;;;;;;1903419;74;21088;-93
2021/12/15 17:23:33;;;;;;;32.13;19.55;;;3.60;99.90;;;;;;1916720;74;21204;-93
2021/12/15 17:26:30;;;;;;;32.83;19.00;;;3.70;99.90;;;;;;1902364;75;21153;-92
2021/12/15 17:29:31;;;;;;;35.68;19.27;;;3.70;99.90;;;;;;1902246;75;21103;-93
2021/12/15 17:32:22;;;;;;;33.78;19.67;;;3.60;99.90;;;;;;1930711;74;21048;-93
2021/12/15 17:35:17;;;;;;;33.38;19.80;;;3.70;99.90;;;;;;1936105;74;21052;-93
2021/12/15 17:38:23;;;;;;;34.65;18.67;;;3.70;99.90;;;;;;1935741;74;21084;-94
2021/12/15 17:41:19;;;;;;;31.62;19.48;;;3.70;99.90;;;;;;1935611;74;21094;-92
2021/12/15 17:44:16;;;;;;;30.70;19.57;;;3.70;99.90;;;;;;1935902;74;21125;-93
2021/12/15 17:47:11;;;;;;;31.73;20.02;;;3.70;99.90;;;;;;1935813;74;21107;-95
2021/12/15 17:50:10;;;;;;;33.40;19.75;;;3.60;99.90;;;;;;1936035;74;21039;-92
2021/12/15 17:53:05;;;;;;;34.85;20.75;;;3.50;99.90;;;;;;1935897;74;21043;-92
2021/12/15 17:55:56;;;;;;;34.00;20.82;;;3.60;99.90;;;;;;1935891;74;21051;-93
2021/12/15 17:58:48;;;;;;;46.77;22.35;;;3.60;99.90;;;;;;1923994;74;21111;-92
2021/12/15 18:01:43;;;;;;;34.35;21.20;;;3.60;99.90;;;;;;1866269;77;21107;-93
2021/12/15 18:04:35;;;;;;;34.27;21.23;;;3.60;99.90;;;;;;1904435;75;21039;-93
2021/12/15 18:07:27;;;;;;;30.82;19.12;;;3.70;99.90;;;;;;1865965;77;21158;-92
2021/12/15 18:10:29;;;;;;;29.30;17.98;;;3.70;99.90;;;;;;1903465;75;21081;-93
2021/12/15 18:13:18;;;;;;;29.80;17.82;;;3.80;99.90;;;;;;1905659;75;21111;-92
2021/12/15 18:16:11;;;;;;;30.43;17.65;;;3.80;99.90;;;;;;1904684;75;21415;-93
2021/12/15 18:19:04;;;;;;;29.60;18.48;;;3.70;99.90;;;;;;1902177;75;21068;-93
2021/12/15 18:21:56;;;;;;;28.23;18.55;;;3.70;99.90;;;;;;1902378;75;21112;-94
2021/12/15 18:24:48;;;;;;;31.15;18.98;;;3.70;99.90;;;;;;1907570;74;21106;-93
2021/12/15 18:27:39;;;;;;;30.85;18.82;;;3.70;99.90;;;;;;1902587;75;21091;-92
2021/12/15 18:30:35;;;;;;;31.70;19.10;;;3.70;99.90;;;;;;1904844;74;21055;-92
2021/12/15 18:33:30;;;;;;;28.38;17.15;;;3.70;99.90;;;;;;1915713;74;21252;-91
2021/12/15 18:36:22;;;;;;;29.20;17.67;;;3.60;99.90;;;;;;1902265;75;21062;-92
2021/12/15 18:39:17;;;;;;;33.98;18.00;;;3.60;99.90;;;;;;1903174;75;21177;-92
2021/12/15 18:42:09;;;;;;;31.25;18.98;;;3.70;99.90;;;;;;1904660;75;21129;-92
2021/12/15 18:45:03;;;;;;;26.20;15.63;;;3.70;99.90;;;;;;1844223;77;21139;-91
2021/12/15 18:47:56;;;;;;;28.47;17.02;;;3.60;99.90;;;;;;1902476;75;21661;-92
2021/12/15 18:50:55;;;;;;;26.40;16.15;;;3.60;99.90;;;;;;1902213;75;21067;-93
2021/12/15 18:53:42;;;;;;;28.55;17.17;;;3.60;99.90;;;;;;1902770;75;21110;-92
2021/12/15 18:56:35;;;;;;;31.60;17.55;;;3.60;99.90;;;;;;1902866;75;21123;-92
2021/12/15 18:59:29;;;;;;;30.60;18.57;;;3.50;99.90;;;;;;1902120;75;21262;-92
2021/12/15 19:02:23;;;;;;;35.17;20.27;;;3.50;99.90;;;;;;1902294;75;21121;-93
2021/12/15 19:05:16;;;;;;;31.35;20.35;;;3.50;99.90;;;;;;1903909;75;21100;-93
2021/12/15 19:08:09;;;;;;;35.52;20.70;;;3.40;99.90;;;;;;1905412;75;21113;-92
2021/12/15 19:11:03;;;;;;;30.12;18.23;;;3.50;99.90;;;;;;1905490;75;21117;-94
2021/12/15 19:14:00;;;;;;;32.45;19.12;;;3.50;99.90;;;;;;1902451;75;21094;-91
2021/12/15 19:16:54;;;;;;;33.18;18.10;;;3.50;99.90;;;;;;1902371;75;21060;-93
2021/12/15 19:41:42;;;;;;;30.85;18.12;;;3.60;99.90;;;;;;1958055;72;22104;-93
2021/12/15 19:44:34;;;;;;;32.33;17.42;;;3.50;99.90;;;;;;1892945;75;21354;-93
2021/12/15 19:47:26;;;;;;;28.52;17.32;;;3.50;99.90;;;;;;1885943;75;21048;-92
2021/12/15 19:50:18;;;;;;;32.15;18.40;;;3.70;99.90;;;;;;1906010;75;21048;-92
2021/12/15 19:53:30;;;;;;;32.75;17.25;;;3.60;99.90;;;;;;1899693;75;21039;-92
2021/12/15 19:56:22;;;;;;;25.57;16.97;;;3.60;99.90;;;;;;1896715;75;21139;-92
2021/12/15 19:59:16;;;;;;;32.58;18.42;;;3.60;99.90;;;;;;1906000;75;21085;-93
2021/12/15 20:02:09;;;;;;;32.63;17.12;;;3.60;99.90;;;;;;1905841;75;21040;-92
2021/12/15 20:05:01;;;;;;;32.42;18.05;;;3.60;99.90;;;;;;1884508;75;21115;-92
2021/12/15 20:07:52;;;;;;;31.57;18.07;;;3.60;99.90;;;;;;1892901;75;21170;-93
2021/12/15 20:10:47;;;;;;;28.65;16.45;;;3.60;99.90;;;;;;1873532;76;21066;-92
2021/12/15 20:13:39;;;;;;;30.35;16.67;;;3.60;99.90;;;;;;1873611;76;21335;-92
2021/12/15 20:16:33;;;;;;;28.17;16.57;;;3.60;99.90;;;;;;1848557;77;21128;-91
2021/12/15 20:19:27;;;;;;;29.32;17.12;;;3.60;99.90;;;;;;1905640;75;21040;-92
2021/12/15 20:22:20;;;;;;;30.43;17.17;;;3.70;99.90;;;;;;1904253;75;21198;-92
2021/12/15 20:25:18;;;;;;;30.95;17.32;;;3.80;99.90;;;;;;1873594;76;21149;-93
2021/12/15 20:28:13;;;;;;;28.10;16.32;;;3.80;99.90;;;;;;1873374;76;21201;-92
2021/12/15 20:31:24;;;;;;;25.57;15.70;;;3.70;99.90;;;;;;1873937;76;21152;-94
2021/12/15 20:34:34;;;;;;;27.93;15.90;;;3.70;99.90;;;;;;1873714;76;21092;-92
2021/12/15 20:37:29;;;;;;;27.58;15.03;;;3.60;99.90;;;;;;1873566;75;21188;-92
2021/12/15 20:40:21;;;;;;;24.72;14.47;;;3.60;99.90;;;;;;1873655;75;21069;-93
2021/12/15 20:43:15;;;;;;;27.27;15.35;;;3.60;99.90;;;;;;1878938;76;21146;-92
2021/12/15 20:46:07;;;;;;;26.60;14.47;;;3.60;99.90;;;;;;1878977;76;21161;-92
2021/12/15 20:49:00;;;;;;;23.95;13.70;;;3.60;99.90;;;;;;1877784;76;21168;-92
2021/12/15 20:51:53;;;;;;;26.90;14.95;;;3.50;99.90;;;;;;1877750;76;21137;-92
2021/12/15 20:54:47;;;;;;;27.32;14.55;;;3.50;99.90;;;;;;1879346;75;21188;-92
2021/12/15 20:57:42;;;;;;;24.40;14.00;;;3.50;99.90;;;;;;1908907;74;21111;-92
2021/12/15 21:00:36;;;;;;;25.88;14.68;;;3.50;99.90;;;;;;1877837;76;21133;-92
2021/12/15 21:03:28;;;;;;;25.82;14.83;;;3.50;99.90;;;;;;1899348;75;21056;-92
2021/12/15 21:06:23;;;;;;;24.05;14.20;;;3.60;99.90;;;;;;1899976;75;21830;-92
2021/12/15 21:09:18;;;;;;;26.15;14.68;;;3.60;99.90;;;;;;1877867;76;21145;-92
2021/12/15 21:12:12;;;;;;;24.95;15.20;;;3.60;99.90;;;;;;1897046;75;21099;-92
2021/12/15 21:15:08;;;;;;;24.55;14.43;;;3.60;99.90;;;;;;1876557;76;21047;-92
2021/12/15 21:17:59;;;;;;;25.10;13.80;;;3.70;99.90;;;;;;1900200;75;21103;-91
2021/12/15 21:20:52;;;;;;;26.55;14.38;;;3.70;99.90;;;;;;1878450;75;21061;-93
2021/12/15 21:23:44;;;;;;;25.50;14.58;;;3.60;99.90;;;;;;1878509;76;21145;-93
2021/12/15 21:26:37;;;;;;;24.87;14.78;;;3.60;99.90;;;;;;1878217;76;21137;-92
2021/12/15 21:29:31;;;;;;;26.55;14.65;;;3.50;99.90;;;;;;1887232;75;21109;-93
2021/12/15 21:32:23;;;;;;;25.65;14.68;;;3.60;99.90;;;;;;1904566;75;21060;-93
2021/12/15 21:35:17;;;;;;;25.23;14.10;;;3.50;99.90;;;;;;1899378;75;21076;-93
2021/12/15 21:38:09;;;;;;;25.02;13.83;;;3.40;99.90;;;;;;1878357;76;21075;-93
2021/12/15 21:41:02;;;;;;;22.35;13.72;;;3.40;99.90;;;;;;1891101;75;21090;-93
2021/12/15 21:43:53;;;;;;;25.32;13.90;;;3.40;99.90;;;;;;1910749;75;21068;-94
2021/12/15 21:46:45;;;;;;;22.17;13.00;;;3.50;99.90;;;;;;1912023;75;21043;-93
2021/12/15 21:49:36;;;;;;;24.43;13.90;;;3.50;99.90;;;;;;1912818;75;21043;-92
2021/12/15 21:52:29;;;;;;;22.35;12.63;;;3.50;99.90;;;;;;1909819;75;21106;-92
2021/12/15 21:55:23;;;;;;;23.62;13.68;;;3.50;99.90;;;;;;1879314;75;21200;-92